Time;durP1;ratioP1;P1;durP2;ratioP2;P2;SDS_P1;SDS_P2;PMS_P1;PMS_P2;Temp;Humidity;BMP_temperature;BMP_pressure;BME280_temperature;BME280_humidity;BME280_pressure;Samples;Min_cycle;Max_cycle;Signal;HPM_P1;HPM_P2
2022/07/12 00:00:42;;;;;;;2.05;1.95;;;;;;;;;;4981998;28;20038;-68
2022/07/12 00:03:08;;;;;;;3.88;1.90;;;;;;;;;;4981335;28;20052;-69
2022/07/12 00:05:33;;;;;;;2.25;1.90;;;;;;;;;;4981308;28;20034;-69
2022/07/12 00:07:59;;;;;;;2.38;1.70;;;;;;;;;;4981892;28;20525;-69
2022/07/12 00:10:24;;;;;;;3.78;2.00;;;;;;;;;;4964032;28;20073;-69
2022/07/12 00:12:50;;;;;;;2.45;2.22;;;;;;;;;;4981222;28;20093;-69
2022/07/12 00:15:15;;;;;;;2.40;2.20;;;;;;;;;;4981212;28;20042;-68
2022/07/12 00:17:41;;;;;;;2.15;1.95;;;;;;;;;;4982066;28;20121;-69
2022/07/12 00:20:07;;;;;;;3.55;1.90;;;;;;;;;;4981731;28;20045;-68
2022/07/12 00:22:33;;;;;;;4.03;1.67;;;;;;;;;;4981883;28;20030;-68
2022/07/12 00:24:59;;;;;;;3.53;1.88;;;;;;;;;;4980721;28;20191;-68
2022/07/12 00:27:25;;;;;;;6.93;2.10;;;;;;;;;;4980187;28;20111;-69
2022/07/12 00:29:50;;;;;;;2.45;1.80;;;;;;;;;;4981749;28;20030;-69
2022/07/12 00:32:16;;;;;;;2.03;1.90;;;;;;;;;;4979830;28;20047;-69
2022/07/12 00:34:42;;;;;;;2.58;1.88;;;;;;;;;;4980385;28;20101;-69
2022/07/12 00:37:07;;;;;;;2.75;2.10;;;;;;;;;;4981284;28;20174;-69
2022/07/12 00:39:33;;;;;;;2.03;1.80;;;;;;;;;;4981902;28;20030;-69
2022/07/12 00:41:58;;;;;;;2.47;1.95;;;;;;;;;;4981534;28;20180;-69
2022/07/12 00:44:26;;;;;;;2.15;2.05;;;;;;;;;;4985553;28;20115;-69
2022/07/12 00:46:51;;;;;;;3.60;2.25;;;;;;;;;;4984376;28;20037;-69
2022/07/12 00:49:17;;;;;;;3.80;2.30;;;;;;;;;;4985036;28;20574;-69
2022/07/12 00:51:44;;;;;;;2.00;1.85;;;;;;;;;;4985454;28;20487;-69
2022/07/12 00:54:10;;;;;;;2.40;2.20;;;;;;;;;;4985100;28;20847;-69
2022/07/12 00:56:36;;;;;;;3.88;2.38;;;;;;;;;;4984340;28;20045;-69
2022/07/12 00:59:02;;;;;;;2.88;2.40;;;;;;;;;;4983573;28;20529;-69
2022/07/12 01:01:28;;;;;;;1.85;1.75;;;;;;;;;;4984251;28;20069;-69
2022/07/12 01:03:54;;;;;;;2.60;2.40;;;;;;;;;;4983719;28;21152;-69
2022/07/12 01:06:20;;;;;;;2.03;1.83;;;;;;;;;;4984662;28;20129;-69
2022/07/12 01:08:46;;;;;;;2.08;1.98;;;;;;;;;;4984292;28;20038;-69
2022/07/12 01:11:12;;;;;;;2.13;1.92;;;;;;;;;;4984658;28;20052;-69
2022/07/12 01:13:37;;;;;;;2.53;1.90;;;;;;;;;;4984929;28;20117;-69
2022/07/12 01:16:05;;;;;;;2.20;2.08;;;;;;;;;;4984439;28;20502;-69
2022/07/12 01:18:32;;;;;;;4.93;2.00;;;;;;;;;;4984492;28;20149;-70
2022/07/12 01:20:57;;;;;;;2.85;2.20;;;;;;;;;;4984766;28;20053;-69
2022/07/12 01:23:24;;;;;;;3.53;2.25;;;;;;;;;;4984471;28;20442;-69
2022/07/12 01:25:50;;;;;;;2.88;2.17;;;;;;;;;;4984494;28;20034;-69
2022/07/12 01:28:16;;;;;;;2.15;1.88;;;;;;;;;;4984396;28;20042;-69
2022/07/12 01:30:41;;;;;;;7.22;2.08;;;;;;;;;;4984265;28;20522;-70
2022/07/12 01:33:07;;;;;;;2.85;2.00;;;;;;;;;;4984330;28;20129;-69
2022/07/12 01:35:33;;;;;;;2.33;1.90;;;;;;;;;;4984420;28;20030;-69
2022/07/12 01:37:58;;;;;;;3.28;2.13;;;;;;;;;;4979149;28;20040;-69
2022/07/12 01:40:24;;;;;;;2.28;1.70;;;;;;;;;;4982639;28;20042;-69
2022/07/12 01:42:51;;;;;;;4.13;3.72;;;;;;;;;;4984241;28;20038;-69
2022/07/12 01:45:16;;;;;;;10.85;3.88;;;;;;;;;;4982310;28;20419;-69
2022/07/12 01:47:42;;;;;;;5.85;3.92;;;;;;;;;;4984304;28;20758;-69
2022/07/12 01:50:09;;;;;;;4.82;3.40;;;;;;;;;;4984011;28;20440;-69
2022/07/12 01:52:36;;;;;;;4.38;3.67;;;;;;;;;;4983383;28;20546;-69
2022/07/12 01:55:02;;;;;;;4.82;3.50;;;;;;;;;;4982444;28;20041;-69
2022/07/12 01:57:28;;;;;;;4.38;3.35;;;;;;;;;;4982768;28;20116;-70
2022/07/12 01:59:56;;;;;;;5.50;2.83;;;;;;;;;;4984248;28;20101;-69
2022/07/12 02:02:25;;;;;;;3.28;2.97;;;;;;;;;;4981882;28;20030;-70
2022/07/12 02:04:50;;;;;;;5.72;3.00;;;;;;;;;;4983389;28;20065;-70
2022/07/12 02:07:16;;;;;;;5.78;2.92;;;;;;;;;;4983926;28;20026;-69
2022/07/12 02:09:41;;;;;;;5.20;2.65;;;;;;;;;;4983998;28;21102;-70
2022/07/12 02:12:07;;;;;;;8.15;3.30;;;;;;;;;;4983768;28;20062;-70
2022/07/12 02:14:32;;;;;;;4.57;2.92;;;;;;;;;;4982888;28;20973;-70
2022/07/12 02:16:57;;;;;;;3.35;2.85;;;;;;;;;;4983174;28;20137;-70
2022/07/12 02:19:23;;;;;;;6.40;3.28;;;;;;;;;;4983631;28;20038;-69
2022/07/12 02:21:48;;;;;;;3.30;3.00;;;;;;;;;;4983534;28;20073;-69
2022/07/12 02:24:14;;;;;;;6.72;3.17;;;;;;;;;;4982680;28;20097;-70
2022/07/12 02:26:39;;;;;;;4.15;2.65;;;;;;;;;;4981920;28;20045;-70
2022/07/12 02:29:06;;;;;;;2.83;2.50;;;;;;;;;;4983728;28;20030;-70
2022/07/12 02:31:31;;;;;;;4.78;2.78;;;;;;;;;;4983114;28;20037;-70
2022/07/12 02:33:57;;;;;;;3.92;2.38;;;;;;;;;;4983488;28;20030;-70
2022/07/12 02:36:23;;;;;;;2.60;2.40;;;;;;;;;;4981029;28;20052;-70
2022/07/12 02:38:49;;;;;;;2.80;2.58;;;;;;;;;;4983367;28;20065;-70
2022/07/12 02:41:14;;;;;;;3.90;2.70;;;;;;;;;;4983120;28;20109;-70
2022/07/12 02:43:40;;;;;;;3.53;2.58;;;;;;;;;;4983257;28;20038;-70
2022/07/12 02:46:11;;;;;;;2.78;2.50;;;;;;;;;;4982682;28;20034;-69
2022/07/12 02:48:38;;;;;;;5.75;2.58;;;;;;;;;;4982905;28;20038;-69
2022/07/12 02:51:05;;;;;;;2.80;2.60;;;;;;;;;;4982812;28;20046;-70
2022/07/12 02:53:32;;;;;;;3.15;2.85;;;;;;;;;;4982613;28;20030;-69
2022/07/12 02:55:58;;;;;;;2.65;2.45;;;;;;;;;;4982514;28;20622;-69
2022/07/12 02:58:24;;;;;;;2.70;2.40;;;;;;;;;;4982183;28;20038;-70
2022/07/12 03:00:49;;;;;;;5.15;3.15;;;;;;;;;;4982767;28;20065;-70
2022/07/12 03:03:15;;;;;;;7.07;2.75;;;;;;;;;;4982667;28;20050;-70
2022/07/12 03:05:42;;;;;;;3.00;2.75;;;;;;;;;;4980839;28;20053;-69
2022/07/12 03:08:08;;;;;;;3.22;2.85;;;;;;;;;;4982028;28;20061;-70
2022/07/12 03:10:34;;;;;;;3.75;3.00;;;;;;;;;;4982618;28;20030;-69
2022/07/12 03:13:00;;;;;;;4.20;3.17;;;;;;;;;;4982726;28;20034;-69
2022/07/12 03:15:27;;;;;;;5.43;2.58;;;;;;;;;;4982161;28;20466;-69
2022/07/12 03:17:53;;;;;;;2.88;2.67;;;;;;;;;;4982698;28;20047;-69
2022/07/12 03:20:19;;;;;;;3.53;2.78;;;;;;;;;;4981819;28;20030;-69
2022/07/12 03:22:48;;;;;;;3.35;2.85;;;;;;;;;;4982378;28;20041;-69
2022/07/12 03:25:14;;;;;;;3.03;2.53;;;;;;;;;;4982191;28;20051;-70
2022/07/12 03:27:40;;;;;;;3.70;2.45;;;;;;;;;;4982743;28;20038;-69
2022/07/12 03:30:07;;;;;;;3.97;2.92;;;;;;;;;;4982054;28;20038;-69
2022/07/12 03:32:32;;;;;;;5.10;2.80;;;;;;;;;;4980356;28;20046;-69
2022/07/12 03:34:58;;;;;;;3.40;2.85;;;;;;;;;;4981978;28;20042;-69
2022/07/12 03:37:23;;;;;;;2.75;2.55;;;;;;;;;;4982306;28;20030;-69
2022/07/12 03:39:49;;;;;;;5.50;3.00;;;;;;;;;;4979721;28;20129;-69
2022/07/12 03:42:14;;;;;;;4.05;2.75;;;;;;;;;;4981078;28;20045;-68
2022/07/12 03:44:40;;;;;;;3.60;2.80;;;;;;;;;;4981763;28;20022;-69
2022/07/12 03:47:05;;;;;;;6.05;5.47;;;;;;;;;;4979410;28;20030;-69
2022/07/12 03:49:31;;;;;;;3.05;2.85;;;;;;;;;;4981476;28;20073;-68
2022/07/12 03:51:57;;;;;;;5.65;3.83;;;;;;;;;;4981925;28;20045;-68
2022/07/12 03:54:22;;;;;;;3.67;3.22;;;;;;;;;;4981382;28;20034;-69
2022/07/12 03:59:32;;;;;;;2.58;2.05;;;;;;;;;;4981716;28;20476;-69
2022/07/12 04:01:58;;;;;;;2.50;2.22;;;;;;;;;;4981862;28;20034;-70
2022/07/12 04:04:23;;;;;;;2.55;1.83;;;;;;;;;;4981083;28;20904;-69
2022/07/12 04:06:49;;;;;;;3.30;2.08;;;;;;;;;;4981524;28;20077;-69
2022/07/12 04:09:14;;;;;;;2.47;1.75;;;;;;;;;;4976148;28;20410;-69
2022/07/12 04:11:40;;;;;;;3.45;1.70;;;;;;;;;;4981055;28;20501;-70
2022/07/12 04:14:05;;;;;;;3.83;1.80;;;;;;;;;;4979933;28;20033;-69
2022/07/12 04:16:31;;;;;;;1.77;1.60;;;;;;;;;;4980931;28;20030;-69
2022/07/12 04:18:57;;;;;;;1.80;1.70;;;;;;;;;;4985050;28;20034;-69
2022/07/12 04:21:22;;;;;;;3.00;1.70;;;;;;;;;;4985984;28;20038;-69
2022/07/12 04:23:48;;;;;;;4.40;1.90;;;;;;;;;;4985620;28;20031;-69
2022/07/12 04:26:13;;;;;;;4.03;1.83;;;;;;;;;;4984267;28;20035;-70
2022/07/12 04:28:39;;;;;;;2.72;2.30;;;;;;;;;;4983256;28;20577;-69
2022/07/12 04:31:06;;;;;;;3.42;2.42;;;;;;;;;;4984913;28;20038;-70
2022/07/12 04:33:33;;;;;;;3.22;2.20;;;;;;;;;;4984487;28;20041;-69
2022/07/12 04:35:58;;;;;;;2.58;2.38;;;;;;;;;;4981766;28;20038;-69
2022/07/12 04:38:24;;;;;;;2.45;2.13;;;;;;;;;;4984377;28;20053;-70
2022/07/12 04:40:49;;;;;;;2.65;2.33;;;;;;;;;;4983790;28;20042;-70
2022/07/12 04:43:15;;;;;;;3.65;2.40;;;;;;;;;;4985269;28;20434;-69
2022/07/12 04:45:43;;;;;;;3.63;2.70;;;;;;;;;;4984840;28;20492;-71
2022/07/12 04:48:09;;;;;;;3.65;2.25;;;;;;;;;;4983126;28;20034;-70
2022/07/12 04:50:35;;;;;;;3.47;2.60;;;;;;;;;;4984647;28;20093;-70
2022/07/12 04:53:00;;;;;;;5.93;2.53;;;;;;;;;;4985034;28;20042;-70
2022/07/12 04:55:26;;;;;;;6.15;2.33;;;;;;;;;;4984917;28;20026;-71
2022/07/12 04:57:51;;;;;;;3.83;2.47;;;;;;;;;;4985087;28;20402;-70
2022/07/12 05:00:17;;;;;;;5.13;2.50;;;;;;;;;;4982400;28;20034;-70
2022/07/12 05:02:42;;;;;;;3.63;2.42;;;;;;;;;;4983752;28;20392;-69
2022/07/12 05:05:08;;;;;;;2.50;2.30;;;;;;;;;;4984337;28;20041;-69
2022/07/12 05:07:33;;;;;;;4.13;2.50;;;;;;;;;;4985005;28;20042;-69
2022/07/12 05:09:59;;;;;;;2.97;2.30;;;;;;;;;;4983672;28;20855;-70
2022/07/12 05:12:24;;;;;;;6.72;2.83;;;;;;;;;;4983405;28;20049;-69
2022/07/12 05:14:50;;;;;;;2.47;2.28;;;;;;;;;;4982461;28;20113;-70
2022/07/12 05:17:15;;;;;;;4.72;2.67;;;;;;;;;;4983670;28;20049;-70
2022/07/12 05:19:40;;;;;;;3.65;2.38;;;;;;;;;;4983639;28;20041;-70
2022/07/12 05:22:06;;;;;;;2.80;2.42;;;;;;;;;;4983341;28;20030;-69
2022/07/12 05:24:32;;;;;;;3.42;2.33;;;;;;;;;;4983710;28;20074;-69
2022/07/12 05:26:57;;;;;;;2.83;2.20;;;;;;;;;;4984304;28;20034;-69
2022/07/12 05:29:22;;;;;;;2.33;1.95;;;;;;;;;;4983736;28;20042;-69
2022/07/12 05:31:48;;;;;;;4.63;1.70;;;;;;;;;;4983778;28;20053;-71
2022/07/12 05:34:13;;;;;;;2.75;1.70;;;;;;;;;;4983942;28;20042;-70
2022/07/12 05:36:39;;;;;;;1.98;1.65;;;;;;;;;;4983151;28;20026;-69
2022/07/12 05:39:05;;;;;;;1.52;1.42;;;;;;;;;;4982753;28;20034;-69
2022/07/12 05:41:31;;;;;;;1.70;1.60;;;;;;;;;;4981035;28;20053;-69
2022/07/12 05:43:56;;;;;;;3.05;1.50;;;;;;;;;;4980529;28;20034;-69
2022/07/12 05:46:22;;;;;;;2.55;1.35;;;;;;;;;;4982133;28;20046;-70
2022/07/12 05:48:48;;;;;;;2.53;1.40;;;;;;;;;;4982146;28;20440;-69
2022/07/12 05:53:58;;;;;;;2.00;1.60;;;;;;;;;;4981939;28;20038;-70
2022/07/12 05:56:23;;;;;;;1.67;1.58;;;;;;;;;;4980733;28;20344;-69
2022/07/12 05:58:50;;;;;;;1.50;1.40;;;;;;;;;;4983858;28;20041;-68
2022/07/12 06:01:18;;;;;;;3.70;1.35;;;;;;;;;;4984383;28;20050;-69
2022/07/12 06:03:44;;;;;;;2.85;1.40;;;;;;;;;;4969053;28;20041;-67
2022/07/12 06:06:09;;;;;;;1.25;1.15;;;;;;;;;;4983929;28;20034;-68
2022/07/12 06:08:35;;;;;;;1.13;1.08;;;;;;;;;;4984343;28;20632;-68
2022/07/12 06:11:00;;;;;;;1.40;1.30;;;;;;;;;;4984540;28;20034;-68
2022/07/12 06:13:26;;;;;;;2.50;1.33;;;;;;;;;;4984523;28;20145;-68
2022/07/12 06:15:51;;;;;;;1.10;1.10;;;;;;;;;;4982791;28;20045;-68
2022/07/12 06:18:17;;;;;;;1.27;1.17;;;;;;;;;;4981465;28;20172;-69
2022/07/12 06:20:43;;;;;;;2.05;1.15;;;;;;;;;;4983869;28;20030;-70
2022/07/12 06:23:08;;;;;;;0.90;0.90;;;;;;;;;;4983983;28;20022;-70
2022/07/12 06:25:34;;;;;;;1.13;1.10;;;;;;;;;;4983582;28;20487;-71
2022/07/12 06:28:00;;;;;;;0.95;0.95;;;;;;;;;;4982364;28;20038;-71
2022/07/12 06:30:26;;;;;;;2.80;1.00;;;;;;;;;;4982824;28;20034;-70
2022/07/12 06:32:51;;;;;;;2.95;1.00;;;;;;;;;;4979342;28;20042;-70
2022/07/12 06:35:17;;;;;;;1.35;1.00;;;;;;;;;;4979523;28;20082;-71
2022/07/12 06:37:43;;;;;;;2.22;1.05;;;;;;;;;;4978288;28;20049;-69
2022/07/12 06:40:10;;;;;;;1.20;1.10;;;;;;;;;;4979107;28;20034;-69
2022/07/12 06:42:35;;;;;;;1.08;0.98;;;;;;;;;;4981101;28;20069;-69
2022/07/12 06:45:02;;;;;;;1.08;1.05;;;;;;;;;;4980555;28;20073;-69
2022/07/12 06:47:27;;;;;;;1.30;1.20;;;;;;;;;;4980983;28;20034;-71
2022/07/12 06:49:53;;;;;;;0.82;0.82;;;;;;;;;;4980175;28;20034;-70
2022/07/12 06:52:18;;;;;;;1.25;1.02;;;;;;;;;;4982454;28;20057;-70
2022/07/12 06:54:44;;;;;;;1.27;0.90;;;;;;;;;;4982578;28;20030;-69
2022/07/12 06:57:09;;;;;;;1.77;1.27;;;;;;;;;;4982316;28;20073;-69
2022/07/12 06:59:35;;;;;;;0.77;0.75;;;;;;;;;;4981808;28;20097;-70
2022/07/12 07:02:00;;;;;;;1.85;1.08;;;;;;;;;;4982266;28;20061;-70
2022/07/12 07:04:26;;;;;;;1.20;1.10;;;;;;;;;;4982232;28;20049;-70
2022/07/12 07:06:51;;;;;;;1.10;1.10;;;;;;;;;;4982046;28;20447;-71
2022/07/12 07:09:17;;;;;;;1.33;1.15;;;;;;;;;;4979794;28;20042;-70
2022/07/12 07:11:43;;;;;;;1.05;1.02;;;;;;;;;;4981282;28;20034;-69
2022/07/12 07:14:09;;;;;;;0.98;0.90;;;;;;;;;;4980871;28;20080;-70
2022/07/12 07:16:34;;;;;;;1.08;0.98;;;;;;;;;;4981099;28;20088;-69
2022/07/12 07:19:00;;;;;;;0.93;0.93;;;;;;;;;;4980614;28;20054;-70
2022/07/12 07:21:25;;;;;;;1.55;0.90;;;;;;;;;;4977958;28;20164;-72
2022/07/12 07:23:55;;;;;;;1.75;1.40;;;;;;;;;;4981355;28;20034;-71
2022/07/12 07:26:21;;;;;;;1.05;1.05;;;;;;;;;;4980602;28;20034;-71
2022/07/12 07:31:33;;;;;;;3.17;1.15;;;;;;;;;;4982395;28;20042;-71
2022/07/12 07:33:59;;;;;;;2.00;1.27;;;;;;;;;;4981581;28;20090;-70
2022/07/12 07:36:24;;;;;;;1.30;1.20;;;;;;;;;;4981744;28;20917;-70
2022/07/12 07:38:50;;;;;;;1.92;1.40;;;;;;;;;;4982111;28;20065;-71
2022/07/12 07:41:15;;;;;;;1.58;1.48;;;;;;;;;;4981910;28;20499;-70
2022/07/12 07:43:40;;;;;;;1.23;1.13;;;;;;;;;;4981345;28;20034;-72
2022/07/12 07:46:06;;;;;;;1.00;1.00;;;;;;;;;;4981640;28;20050;-72
2022/07/12 07:48:31;;;;;;;0.93;0.80;;;;;;;;;;4981970;28;20105;-70
2022/07/12 07:50:57;;;;;;;1.58;0.98;;;;;;;;;;4982262;28;20113;-70
2022/07/12 07:53:24;;;;;;;1.10;1.10;;;;;;;;;;4982014;28;20034;-70
2022/07/12 07:55:50;;;;;;;2.03;1.10;;;;;;;;;;4979202;28;21063;-72
2022/07/12 07:58:15;;;;;;;0.98;0.90;;;;;;;;;;4979792;28;20141;-72
2022/07/12 08:00:41;;;;;;;1.65;0.70;;;;;;;;;;4980712;28;20120;-72
2022/07/12 08:03:06;;;;;;;1.02;0.77;;;;;;;;;;4981610;28;20030;-71
2022/07/12 08:05:32;;;;;;;0.82;0.82;;;;;;;;;;4980713;28;20042;-71
2022/07/12 08:07:57;;;;;;;1.27;0.90;;;;;;;;;;4981447;28;20034;-71
2022/07/12 08:10:23;;;;;;;2.13;0.80;;;;;;;;;;4981645;28;20065;-70
2022/07/12 08:12:49;;;;;;;1.75;1.00;;;;;;;;;;4981600;28;20034;-69
2022/07/12 08:15:14;;;;;;;0.82;0.52;;;;;;;;;;4983237;28;20038;-69
2022/07/12 08:17:40;;;;;;;1.05;1.02;;;;;;;;;;4980991;28;20373;-69
2022/07/12 08:20:05;;;;;;;3.30;0.80;;;;;;;;;;4957685;28;20034;-69
2022/07/12 08:22:31;;;;;;;2.42;0.90;;;;;;;;;;4981003;28;20030;-69
2022/07/12 08:24:57;;;;;;;2.45;0.90;;;;;;;;;;4981214;28;20038;-69
2022/07/12 08:27:22;;;;;;;1.20;1.10;;;;;;;;;;4980676;28;20041;-70
2022/07/12 08:29:49;;;;;;;1.85;1.00;;;;;;;;;;4980887;28;20069;-71
2022/07/12 08:32:15;;;;;;;0.70;0.65;;;;;;;;;;4980002;28;20552;-71
2022/07/12 08:34:41;;;;;;;2.15;0.80;;;;;;;;;;4981285;28;20030;-70
2022/07/12 08:37:06;;;;;;;1.73;0.65;;;;;;;;;;4982673;28;20041;-70
2022/07/12 08:39:32;;;;;;;0.80;0.80;;;;;;;;;;4981337;28;20042;-70
2022/07/12 08:41:57;;;;;;;2.80;0.85;;;;;;;;;;4982522;28;20038;-70
2022/07/12 08:44:23;;;;;;;1.17;0.88;;;;;;;;;;4981425;28;20046;-70
2022/07/12 08:46:48;;;;;;;1.52;0.90;;;;;;;;;;4978394;28;20036;-70
2022/07/12 08:49:15;;;;;;;0.80;0.80;;;;;;;;;;4979915;28;20610;-70
2022/07/12 08:51:40;;;;;;;0.90;0.90;;;;;;;;;;4952528;28;20713;-69
2022/07/12 08:54:12;;;;;;;1.08;0.95;;;;;;;;;;4981034;28;20026;-70
2022/07/12 08:56:41;;;;;;;;;;;;;;;;;;4981242;28;20418;-70
2022/07/12 08:59:18;;;;;;;0.80;0.80;;;;;;;;;;4980408;28;19918;-70
2022/07/12 09:01:47;;;;;;;1.45;0.85;;;;;;;;;;4980598;28;20039;-70
2022/07/12 09:04:17;;;;;;;3.53;0.85;;;;;;;;;;4981850;28;20108;-70
2022/07/12 09:06:42;;;;;;;1.10;0.80;;;;;;;;;;4985650;28;20061;-72
2022/07/12 09:09:09;;;;;;;1.48;1.00;;;;;;;;;;4985661;28;20079;-71
2022/07/12 09:11:39;;;;;;;2.35;0.77;;;;;;;;;;4984598;28;20042;-70
2022/07/12 09:14:05;;;;;;;0.85;0.85;;;;;;;;;;4985129;28;20035;-71
2022/07/12 09:16:30;;;;;;;0.85;0.85;;;;;;;;;;4985646;28;20117;-70
2022/07/12 09:19:17;;;;;;;0.80;0.70;;;;;;;;;;4984468;28;20030;-71
2022/07/12 09:21:49;;;;;;;1.50;0.90;;;;;;;;;;4984217;28;20133;-71
2022/07/12 09:24:15;;;;;;;1.02;0.70;;;;;;;;;;4983485;28;20548;-71
2022/07/12 09:26:40;;;;;;;4.00;0.90;;;;;;;;;;4984150;28;20042;-71
2022/07/12 09:29:07;;;;;;;1.00;1.00;;;;;;;;;;4984234;28;20038;-71
2022/07/12 09:37:15;;;;;;;2.15;1.00;;;;;;;;;;4984308;28;20165;-71
2022/07/12 09:39:41;;;;;;;1.60;1.00;;;;;;;;;;4984054;28;20117;-72
2022/07/12 09:42:12;;;;;;;1.35;0.90;;;;;;;;;;4984448;28;20088;-71
2022/07/12 09:44:38;;;;;;;1.33;0.90;;;;;;;;;;4981907;28;20035;-70
2022/07/12 09:47:09;;;;;;;1.20;0.90;;;;;;;;;;4983846;28;20121;-71
2022/07/12 09:49:35;;;;;;;2.15;0.98;;;;;;;;;;4978036;28;20033;-70
2022/07/12 09:52:03;;;;;;;0.98;0.85;;;;;;;;;;4981102;28;20521;-70
2022/07/12 09:54:29;;;;;;;0.90;0.80;;;;;;;;;;4980473;28;20038;-72
2022/07/12 09:56:58;;;;;;;1.45;0.70;;;;;;;;;;4980561;28;20105;-71
2022/07/12 09:59:28;;;;;;;0.70;0.70;;;;;;;;;;4980533;28;20400;-71
2022/07/12 10:01:56;;;;;;;3.03;0.70;;;;;;;;;;4982085;28;20133;-71
2022/07/12 10:04:22;;;;;;;0.63;0.63;;;;;;;;;;4982884;28;20042;-71
2022/07/12 10:06:48;;;;;;;0.52;0.52;;;;;;;;;;4982094;28;20065;-71
2022/07/12 10:09:15;;;;;;;0.75;0.75;;;;;;;;;;4985408;28;20037;-71
2022/07/12 10:11:41;;;;;;;0.80;0.80;;;;;;;;;;4984161;28;20042;-72
2022/07/12 10:14:11;;;;;;;0.77;0.73;;;;;;;;;;4984820;28;20042;-70
2022/07/12 10:16:38;;;;;;;0.90;0.73;;;;;;;;;;4980980;28;20045;-73
2022/07/12 10:19:25;;;;;;;3.17;0.70;;;;;;;;;;4981238;28;20101;-73
2022/07/12 10:21:53;;;;;;;1.95;0.75;;;;;;;;;;4980475;28;21238;-71
2022/07/12 10:24:30;;;;;;;1.15;0.77;;;;;;;;;;4982305;28;20042;-71
2022/07/12 10:26:57;;;;;;;2.55;0.80;;;;;;;;;;4985256;28;20080;-74
2022/07/12 10:29:26;;;;;;;1.42;0.70;;;;;;;;;;4979650;28;20074;-73
2022/07/12 10:31:52;;;;;;;0.60;0.60;;;;;;;;;;4982035;28;20081;-71
2022/07/12 10:34:22;;;;;;;0.47;0.45;;;;;;;;;;4981765;28;20125;-71
2022/07/12 10:36:54;;;;;;;0.70;0.70;;;;;;;;;;4981258;28;20056;-71
2022/07/12 10:39:20;;;;;;;;;;;;;;;;;;4982079;28;21476;-71
2022/07/12 10:42:05;;;;;;;0.50;0.47;;;;;;;;;;4981361;28;19918;-72
2022/07/12 10:44:34;;;;;;;0.70;0.70;;;;;;;;;;4981194;28;20096;-71
2022/07/12 10:47:00;;;;;;;0.60;0.60;;;;;;;;;;4981585;28;20101;-72
2022/07/12 10:49:29;;;;;;;0.70;0.70;;;;;;;;;;4981804;28;20042;-72
2022/07/12 10:52:09;;;;;;;0.85;0.70;;;;;;;;;;4980976;28;20534;-71
2022/07/12 10:54:38;;;;;;;0.50;0.50;;;;;;;;;;4981163;28;20085;-71
2022/07/12 10:57:04;;;;;;;0.52;0.50;;;;;;;;;;4979980;28;20030;-73
2022/07/12 10:59:33;;;;;;;2.00;0.80;;;;;;;;;;4981399;28;20491;-71
2022/07/12 11:01:59;;;;;;;1.63;0.68;;;;;;;;;;4981080;28;20417;-71
2022/07/12 11:04:25;;;;;;;0.50;0.50;;;;;;;;;;4980239;28;20046;-71
2022/07/12 11:06:55;;;;;;;0.70;0.70;;;;;;;;;;4980812;28;20045;-72
2022/07/12 11:09:25;;;;;;;1.05;0.55;;;;;;;;;;4981060;28;20042;-72
2022/07/12 11:11:52;;;;;;;0.70;0.55;;;;;;;;;;4977930;28;20042;-73
2022/07/12 11:14:21;;;;;;;1.38;0.60;;;;;;;;;;4978646;28;20080;-71
2022/07/12 11:16:48;;;;;;;1.00;0.60;;;;;;;;;;4981355;28;20096;-72
2022/07/12 11:19:15;;;;;;;5.07;0.70;;;;;;;;;;4981682;28;20080;-71
2022/07/12 11:21:44;;;;;;;0.70;0.70;;;;;;;;;;4978128;28;20093;-73
2022/07/12 11:24:20;;;;;;;4.00;0.60;;;;;;;;;;4976726;28;20058;-71
2022/07/12 11:26:49;;;;;;;0.60;0.60;;;;;;;;;;4980460;28;20042;-73
2022/07/12 11:29:15;;;;;;;1.17;0.57;;;;;;;;;;4981718;28;20483;-71
2022/07/12 11:31:40;;;;;;;2.03;0.52;;;;;;;;;;4982061;28;20418;-73
2022/07/12 11:34:06;;;;;;;0.40;0.40;;;;;;;;;;4980161;28;20480;-72
2022/07/12 11:36:32;;;;;;;0.52;0.45;;;;;;;;;;4979178;28;20591;-72
2022/07/12 11:38:58;;;;;;;0.50;0.47;;;;;;;;;;4982151;28;20961;-72
2022/07/12 11:41:24;;;;;;;0.60;0.60;;;;;;;;;;4981582;28;20101;-72
2022/07/12 11:43:50;;;;;;;2.38;0.50;;;;;;;;;;4981945;28;20030;-73
2022/07/12 11:46:15;;;;;;;0.50;0.50;;;;;;;;;;4980117;28;20094;-72
2022/07/12 11:48:42;;;;;;;1.42;1.30;;;;;;;;;;4981832;28;20036;-71
2022/07/12 11:51:09;;;;;;;0.40;0.40;;;;;;;;;;4980022;28;20508;-73
2022/07/12 11:53:37;;;;;;;1.17;0.50;;;;;;;;;;4981525;28;20038;-72
2022/07/12 11:56:05;;;;;;;0.70;0.57;;;;;;;;;;4979714;28;20053;-73
2022/07/12 11:58:32;;;;;;;0.50;0.50;;;;;;;;;;4980796;28;20088;-73
2022/07/12 12:00:58;;;;;;;0.82;0.60;;;;;;;;;;4981077;28;20049;-72
2022/07/12 12:03:24;;;;;;;0.47;0.47;;;;;;;;;;4981507;28;20034;-73
2022/07/12 12:05:55;;;;;;;1.15;0.50;;;;;;;;;;4981251;28;20049;-73
2022/07/12 12:08:21;;;;;;;3.80;0.70;;;;;;;;;;4979132;28;20034;-75
2022/07/12 12:10:57;;;;;;;2.00;0.52;;;;;;;;;;4980058;28;20137;-74
2022/07/12 12:13:25;;;;;;;2.10;0.57;;;;;;;;;;4980840;28;20037;-73
2022/07/12 12:15:55;;;;;;;3.13;0.90;;;;;;;;;;4979966;28;20036;-74
2022/07/12 12:18:47;;;;;;;1.00;0.70;;;;;;;;;;4980676;28;20057;-73
2022/07/12 12:21:13;;;;;;;0.70;0.50;;;;;;;;;;4978225;28;20460;-74
2022/07/12 12:23:41;;;;;;;0.50;0.50;;;;;;;;;;4980279;28;20681;-73
2022/07/12 12:26:17;;;;;;;0.40;0.40;;;;;;;;;;4980881;28;20915;-72
2022/07/12 12:28:49;;;;;;;0.45;0.45;;;;;;;;;;4981604;28;20129;-72
2022/07/12 12:31:18;;;;;;;0.50;0.50;;;;;;;;;;4980696;28;20046;-74
2022/07/12 12:34:01;;;;;;;0.47;0.35;;;;;;;;;;4981670;28;20041;-73
2022/07/12 12:36:29;;;;;;;0.45;0.38;;;;;;;;;;4980925;28;20038;-74
2022/07/12 12:38:56;;;;;;;0.57;0.43;;;;;;;;;;4965173;28;20121;-76
2022/07/12 12:41:26;;;;;;;0.98;0.50;;;;;;;;;;4984648;28;20030;-72
2022/07/12 12:44:05;;;;;;;2.65;0.43;;;;;;;;;;4985676;28;20590;-73
2022/07/12 12:49:49;;;;;;;0.85;0.60;;;;;;;;;;4984464;28;20038;-73
2022/07/12 12:52:14;;;;;;;0.50;0.50;;;;;;;;;;4982700;28;20582;-73
2022/07/12 12:54:40;;;;;;;0.90;0.40;;;;;;;;;;4983307;28;20141;-73
2022/07/12 12:57:07;;;;;;;0.20;0.20;;;;;;;;;;4984386;28;20488;-74
2022/07/12 12:59:33;;;;;;;0.82;0.55;;;;;;;;;;4984857;28;20061;-73
2022/07/12 13:01:59;;;;;;;1.65;0.45;;;;;;;;;;4984744;28;20506;-73
2022/07/12 13:04:29;;;;;;;0.73;0.50;;;;;;;;;;4983368;28;20042;-73
2022/07/12 13:06:55;;;;;;;0.55;0.35;;;;;;;;;;4984093;28;20034;-73
2022/07/12 13:09:21;;;;;;;0.75;0.47;;;;;;;;;;4984644;28;20095;-74
2022/07/12 13:11:47;;;;;;;4.93;0.57;;;;;;;;;;4983680;28;20507;-73
2022/07/12 13:14:12;;;;;;;0.93;0.68;;;;;;;;;;4987128;28;20070;-74
2022/07/12 13:16:39;;;;;;;1.80;0.60;;;;;;;;;;4984057;28;20037;-72
2022/07/12 13:19:05;;;;;;;1.35;0.60;;;;;;;;;;4984240;28;20165;-73
2022/07/12 13:21:31;;;;;;;0.70;0.60;;;;;;;;;;4984461;28;20031;-74
2022/07/12 13:23:56;;;;;;;2.10;0.50;;;;;;;;;;4983953;28;20046;-74
2022/07/12 13:26:22;;;;;;;1.27;0.63;;;;;;;;;;4982588;28;20438;-73
2022/07/12 13:28:47;;;;;;;0.40;0.40;;;;;;;;;;4984154;28;20062;-73
2022/07/12 13:31:13;;;;;;;3.58;0.50;;;;;;;;;;4982893;28;20074;-73
2022/07/12 13:33:39;;;;;;;0.82;0.60;;;;;;;;;;4983609;28;20026;-72
2022/07/12 13:36:04;;;;;;;0.40;0.40;;;;;;;;;;4983205;28;20412;-73
2022/07/12 13:38:30;;;;;;;3.92;0.40;;;;;;;;;;4978050;28;20034;-73
2022/07/12 13:40:55;;;;;;;2.28;0.50;;;;;;;;;;4981376;28;20460;-74
2022/07/12 13:43:21;;;;;;;1.02;0.40;;;;;;;;;;4979769;28;20042;-73
2022/07/12 13:45:46;;;;;;;1.73;0.65;;;;;;;;;;4980570;28;20050;-74
2022/07/12 13:48:12;;;;;;;0.50;0.50;;;;;;;;;;4981345;28;20038;-74
2022/07/12 13:50:38;;;;;;;2.58;0.90;;;;;;;;;;4981986;28;20038;-73
2022/07/12 13:53:04;;;;;;;0.73;0.40;;;;;;;;;;4982299;28;20053;-74
2022/07/12 13:55:31;;;;;;;0.82;0.60;;;;;;;;;;4981761;28;20046;-74
2022/07/12 13:57:57;;;;;;;2.05;0.50;;;;;;;;;;4981420;28;20033;-72
2022/07/12 14:00:23;;;;;;;1.05;0.57;;;;;;;;;;4981003;28;20101;-72
2022/07/12 14:02:49;;;;;;;1.05;0.50;;;;;;;;;;4980918;28;20026;-73
2022/07/12 14:05:15;;;;;;;0.65;0.47;;;;;;;;;;4979409;28;20050;-72
2022/07/12 14:07:42;;;;;;;3.42;0.52;;;;;;;;;;4980475;28;20574;-74
2022/07/12 14:10:09;;;;;;;2.13;0.28;;;;;;;;;;4979258;28;20522;-73
2022/07/12 14:12:35;;;;;;;0.52;0.43;;;;;;;;;;4981689;28;20484;-72
2022/07/12 14:15:36;;;;;;;1.92;0.60;;;;;;;;;;4980647;28;20057;-72
2022/07/12 14:18:05;;;;;;;1.25;0.65;;;;;;;;;;4981501;28;20137;-73
2022/07/12 14:20:32;;;;;;;1.75;0.70;;;;;;;;;;4979155;28;20045;-72
2022/07/12 14:22:57;;;;;;;1.38;0.50;;;;;;;;;;4982413;28;20049;-72
2022/07/12 14:25:23;;;;;;;1.02;0.60;;;;;;;;;;4981868;28;20038;-73
2022/07/12 14:27:48;;;;;;;0.70;0.70;;;;;;;;;;4982626;28;20037;-73
2022/07/12 14:30:14;;;;;;;0.57;0.45;;;;;;;;;;4982695;28;20048;-71
2022/07/12 14:32:40;;;;;;;0.45;0.45;;;;;;;;;;4982458;28;20121;-72
2022/07/12 14:35:07;;;;;;;0.70;0.40;;;;;;;;;;4982324;28;20109;-71
2022/07/12 14:37:36;;;;;;;2.17;0.50;;;;;;;;;;4982122;28;20042;-71
2022/07/12 14:40:05;;;;;;;1.75;0.50;;;;;;;;;;4982216;28;20045;-71
2022/07/12 14:42:31;;;;;;;1.75;0.60;;;;;;;;;;4981544;28;20038;-73
2022/07/12 14:44:57;;;;;;;1.30;0.70;;;;;;;;;;4981258;28;20105;-71
2022/07/12 14:47:22;;;;;;;2.58;0.70;;;;;;;;;;4982958;28;20126;-71
2022/07/12 14:49:48;;;;;;;1.05;0.70;;;;;;;;;;4980986;28;20458;-71
2022/07/12 14:52:14;;;;;;;0.80;0.60;;;;;;;;;;4982601;28;20053;-72
2022/07/12 14:54:40;;;;;;;2.78;0.55;;;;;;;;;;4982409;28;20034;-70
2022/07/12 14:57:05;;;;;;;1.55;0.60;;;;;;;;;;4982648;28;20022;-70